sensor_id;sensor_type;location;lat;lon;timestamp;pressure;altitude;pressure_sealevel;temperature;humidity
37486;BME280;23341;50.296;18.960;2022-08-01T00:02:56;149672.34;;;14.14;100.00
37486;BME280;23341;50.296;18.960;2022-08-01T00:08:01;149672.34;;;14.14;100.00
37486;BME280;23341;50.296;18.960;2022-08-01T00:13:04;149654.25;;;14.07;100.00
37486;BME280;23341;50.296;18.960;2022-08-01T00:18:07;149656.81;;;14.08;100.00
37486;BME280;23341;50.296;18.960;2022-08-01T00:23:12;149646.47;;;14.04;100.00
37486;BME280;23341;50.296;18.960;2022-08-01T00:28:15;149615.53;;;13.92;100.00
37486;BME280;23341;50.296;18.960;2022-08-01T00:33:19;149561.31;;;13.70;100.00
37486;BME280;23341;50.296;18.960;2022-08-01T00:38:24;149549.63;;;13.66;100.00
37486;BME280;23341;50.296;18.960;2022-08-01T00:43:27;149558.69;;;13.69;100.00
37486;BME280;23341;50.296;18.960;2022-08-01T00:48:31;149518.69;;;13.53;100.00
37486;BME280;23341;50.296;18.960;2022-08-01T00:53:36;149530.31;;;13.58;100.00
37486;BME280;23341;50.296;18.960;2022-08-01T00:58:54;149553.53;;;13.67;100.00
37486;BME280;23341;50.296;18.960;2022-08-01T01:03:58;149512.22;;;13.51;100.00
37486;BME280;23341;50.296;18.960;2022-08-01T01:09:22;149499.31;;;13.46;100.00
37486;BME280;23341;50.296;18.960;2022-08-01T01:14:31;149510.94;;;13.50;100.00
37486;BME280;23341;50.296;18.960;2022-08-01T01:19:43;149499.31;;;13.46;100.00
37486;BME280;23341;50.296;18.960;2022-08-01T01:25:00;149505.75;;;13.48;100.00
37486;BME280;23341;50.296;18.960;2022-08-01T01:30:07;149463.16;;;13.32;100.00
37486;BME280;23341;50.296;18.960;2022-08-01T01:35:15;149415.38;;;13.13;100.00
37486;BME280;23341;50.296;18.960;2022-08-01T01:40:21;149437.31;;;13.21;100.00
37486;BME280;23341;50.296;18.960;2022-08-01T01:45:29;149433.44;;;13.20;100.00
37486;BME280;23341;50.296;18.960;2022-08-01T01:50:35;149412.78;;;13.12;100.00
37486;BME280;23341;50.296;18.960;2022-08-01T01:55:39;149424.41;;;13.16;100.00
37486;BME280;23341;50.296;18.960;2022-08-01T02:00:53;149439.91;;;13.22;100.00
37486;BME280;23341;50.296;18.960;2022-08-01T02:05:59;149438.59;;;13.22;100.00
37486;BME280;23341;50.296;18.960;2022-08-01T02:11:05;149434.72;;;13.20;100.00
37486;BME280;23341;50.296;18.960;2022-08-01T02:16:26;149414.06;;;13.12;100.00
37486;BME280;23341;50.296;18.960;2022-08-01T02:21:40;149336.66;;;12.82;100.00
37486;BME280;23341;50.296;18.960;2022-08-01T02:26:47;149357.31;;;12.90;100.00
37486;BME280;23341;50.296;18.960;2022-08-01T02:31:54;149363.75;;;12.92;100.00
37486;BME280;23341;50.296;18.960;2022-08-01T02:36:59;149350.84;;;12.87;100.00
37486;BME280;23341;50.296;18.960;2022-08-01T02:42:06;149349.56;;;12.87;100.00
37486;BME280;23341;50.296;18.960;2022-08-01T02:47:12;149344.38;;;12.85;100.00
37486;BME280;23341;50.296;18.960;2022-08-01T02:52:17;149306.97;;;12.70;100.00
37486;BME280;23341;50.296;18.960;2022-08-01T02:57:23;149339.22;;;12.83;100.00
37486;BME280;23341;50.296;18.960;2022-08-01T03:02:50;149325.06;;;12.77;100.00
37486;BME280;23341;50.296;18.960;2022-08-01T03:07:58;149299.22;;;12.67;100.00
37486;BME280;23341;50.296;18.960;2022-08-01T03:13:06;149291.53;;;12.64;100.00
37486;BME280;23341;50.296;18.960;2022-08-01T03:18:12;149294.09;;;12.65;100.00
37486;BME280;23341;50.296;18.960;2022-08-01T03:23:18;149318.59;;;12.74;100.00
37486;BME280;23341;50.296;18.960;2022-08-01T03:28:40;149319.88;;;12.75;100.00
37486;BME280;23341;50.296;18.960;2022-08-01T03:33:46;149318.59;;;12.74;100.00
37486;BME280;23341;50.296;18.960;2022-08-01T03:38:50;149331.47;;;12.79;100.00
37486;BME280;23341;50.296;18.960;2022-08-01T03:43:58;149334.09;;;12.81;100.00
37486;BME280;23341;50.296;18.960;2022-08-01T03:49:11;149390.84;;;13.03;100.00
37486;BME280;23341;50.296;18.960;2022-08-01T03:54:20;149408.91;;;13.10;100.00
37486;BME280;23341;50.296;18.960;2022-08-01T03:59:25;149438.59;;;13.22;100.00
37486;BME280;23341;50.296;18.960;2022-08-01T04:04:30;149476.09;;;13.37;100.00
37486;BME280;23341;50.296;18.960;2022-08-01T04:09:34;149426.97;;;13.17;100.00
37486;BME280;23341;50.296;18.960;2022-08-01T04:14:37;149443.81;;;13.24;100.00
37486;BME280;23341;50.296;18.960;2022-08-01T04:19:42;149461.84;;;13.31;100.00
37486;BME280;23341;50.296;18.960;2022-08-01T04:24:49;149495.41;;;13.44;100.00
37486;BME280;23341;50.296;18.960;2022-08-01T04:29:58;149527.69;;;13.57;100.00
37486;BME280;23341;50.296;18.960;2022-08-01T04:35:07;149579.34;;;13.77;100.00
37486;BME280;23341;50.296;18.960;2022-08-01T04:40:33;149589.69;;;13.82;100.00
37486;BME280;23341;50.296;18.960;2022-08-01T04:45:38;149640.06;;;14.01;100.00
37486;BME280;23341;50.296;18.960;2022-08-01T04:50:43;149656.81;;;14.08;100.00
37486;BME280;23341;50.296;18.960;2022-08-01T04:55:46;149673.63;;;14.15;100.00
37486;BME280;23341;50.296;18.960;2022-08-01T05:00:50;149718.81;;;14.33;100.00
37486;BME280;23341;50.296;18.960;2022-08-01T05:05:55;149743.34;;;14.42;100.00
37486;BME280;23341;50.296;18.960;2022-08-01T05:10:58;149771.84;;;14.53;100.00
37486;BME280;23341;50.296;18.960;2022-08-01T05:16:03;149758.94;;;14.48;100.00
37486;BME280;23341;50.296;18.960;2022-08-01T05:21:10;149775.69;;;14.55;100.00
37486;BME280;23341;50.296;18.960;2022-08-01T05:26:13;149814.47;;;14.70;100.00
37486;BME280;23341;50.296;18.960;2022-08-01T05:31:17;149842.88;;;14.82;100.00
37486;BME280;23341;50.296;18.960;2022-08-01T05:36:22;149857.13;;;14.87;100.00
37486;BME280;23341;50.296;18.960;2022-08-01T05:41:25;149920.47;;;15.12;100.00
37486;BME280;23341;50.296;18.960;2022-08-01T05:46:28;149974.75;;;15.34;100.00
37486;BME280;23341;50.296;18.960;2022-08-01T05:51:34;150048.41;;;15.63;100.00
37486;BME280;23341;50.296;18.960;2022-08-01T05:56:37;150131.22;;;15.95;100.00
37486;BME280;23341;50.296;18.960;2022-08-01T06:01:41;150282.56;;;16.55;100.00
37486;BME280;23341;50.296;18.960;2022-08-01T06:06:48;150620.53;;;17.88;100.00
37486;BME280;23341;50.296;18.960;2022-08-01T06:11:51;151442.72;;;21.12;90.13
37486;BME280;23341;50.296;18.960;2022-08-01T06:16:55;152162.72;;;23.94;76.17
37486;BME280;23341;50.296;18.960;2022-08-01T06:21:59;152498.47;;;25.26;66.62
37486;BME280;23341;50.296;18.960;2022-08-01T06:27:03;152697.78;;;26.04;63.21
37486;BME280;23341;50.296;18.960;2022-08-01T06:32:23;152838.44;;;26.59;59.16
37486;BME280;23341;50.296;18.960;2022-08-01T06:37:30;152908.81;;;26.87;56.59
37486;BME280;23341;50.296;18.960;2022-08-01T06:42:34;152966.19;;;27.09;54.69
37486;BME280;23341;50.296;18.960;2022-08-01T06:47:38;152932.28;;;26.96;56.04
37486;BME280;23341;50.296;18.960;2022-08-01T06:52:43;153160.47;;;27.85;53.22
37486;BME280;23341;50.296;18.960;2022-08-01T06:57:48;153770.00;;;30.24;46.42
37486;BME280;23341;50.296;18.960;2022-08-01T07:02:54;153425.25;;;28.89;44.47
37486;BME280;23341;50.296;18.960;2022-08-01T07:07:59;153061.34;;;27.46;48.21
37486;BME280;23341;50.296;18.960;2022-08-01T07:13:02;152768.06;;;26.32;52.03
37486;BME280;23341;50.296;18.960;2022-08-01T07:18:06;153091.34;;;27.58;48.43
37486;BME280;23341;50.296;18.960;2022-08-01T07:23:11;153438.31;;;28.94;44.51
37486;BME280;23341;50.296;18.960;2022-08-01T07:28:15;153570.13;;;29.45;44.59
37486;BME280;23341;50.296;18.960;2022-08-01T07:33:18;153511.44;;;29.23;44.90
37486;BME280;23341;50.296;18.960;2022-08-01T07:38:23;153886.19;;;30.69;40.50
37486;BME280;23341;50.296;18.960;2022-08-01T07:43:27;153660.28;;;29.81;41.49
37486;BME280;23341;50.296;18.960;2022-08-01T07:48:31;153625.00;;;29.67;41.97
37486;BME280;23341;50.296;18.960;2022-08-01T07:53:36;152846.28;;;26.62;48.00
37486;BME280;23341;50.296;18.960;2022-08-01T07:58:40;152563.56;;;25.52;53.82
37486;BME280;23341;50.296;18.960;2022-08-01T08:03:43;152366.97;;;24.74;56.66
37486;BME280;23341;50.296;18.960;2022-08-01T08:08:48;152208.25;;;24.12;59.11
37486;BME280;23341;50.296;18.960;2022-08-01T08:13:51;152039.13;;;23.46;62.15
37486;BME280;23341;50.296;18.960;2022-08-01T08:18:54;151967.66;;;23.18;64.57
37486;BME280;23341;50.296;18.960;2022-08-01T08:23:59;151953.31;;;23.12;63.95
37486;BME280;23341;50.296;18.960;2022-08-01T08:29:27;152007.91;;;23.34;65.24
37486;BME280;23341;50.296;18.960;2022-08-01T08:34:32;152007.91;;;23.34;64.87
37486;BME280;23341;50.296;18.960;2022-08-01T08:39:37;152236.84;;;24.23;62.17
37486;BME280;23341;50.296;18.960;2022-08-01T08:44:43;152311.03;;;24.53;62.84
37486;BME280;23341;50.296;18.960;2022-08-01T08:49:47;152308.44;;;24.52;61.60
37486;BME280;23341;50.296;18.960;2022-08-01T08:54:53;152169.22;;;23.97;59.75
37486;BME280;23341;50.296;18.960;2022-08-01T08:59:56;151942.91;;;23.08;63.37
37486;BME280;23341;50.296;18.960;2022-08-01T09:05:01;151991.03;;;23.27;64.40
37486;BME280;23341;50.296;18.960;2022-08-01T09:10:07;152162.72;;;23.94;62.18
37486;BME280;23341;50.296;18.960;2022-08-01T09:15:12;152048.22;;;23.49;61.49
37486;BME280;23341;50.296;18.960;2022-08-01T09:20:22;151976.75;;;23.21;63.25
37486;BME280;23341;50.296;18.960;2022-08-01T09:25:28;152015.72;;;23.37;64.69
37486;BME280;23341;50.296;18.960;2022-08-01T09:30:48;152071.63;;;23.59;64.08
37486;BME280;23341;50.296;18.960;2022-08-01T09:35:54;152261.59;;;24.33;59.58
37486;BME280;23341;50.296;18.960;2022-08-01T09:41:00;152460.75;;;25.11;56.99
37486;BME280;23341;50.296;18.960;2022-08-01T09:46:08;152523.25;;;25.36;57.04
37486;BME280;23341;50.296;18.960;2022-08-01T09:51:27;152363.09;;;24.73;61.30
37486;BME280;23341;50.296;18.960;2022-08-01T09:56:52;152480.28;;;25.19;61.07
37486;BME280;23341;50.296;18.960;2022-08-01T10:01:56;152272.03;;;24.37;61.57
37486;BME280;23341;50.296;18.960;2022-08-01T10:07:04;152484.19;;;25.20;59.99
37486;BME280;23341;50.296;18.960;2022-08-01T10:12:12;152801.97;;;26.45;55.89
37486;BME280;23341;50.296;18.960;2022-08-01T10:17:19;152805.88;;;26.46;53.20
37486;BME280;23341;50.296;18.960;2022-08-01T10:22:24;152869.72;;;26.71;53.69
37486;BME280;23341;50.296;18.960;2022-08-01T10:27:32;152833.25;;;26.57;54.72
37486;BME280;23341;50.296;18.960;2022-08-01T10:32:41;152778.50;;;26.36;53.22
37486;BME280;23341;50.296;18.960;2022-08-01T10:37:51;152641.72;;;25.82;55.42
37486;BME280;23341;50.296;18.960;2022-08-01T10:43:02;152675.63;;;25.95;55.08
37486;BME280;23341;50.296;18.960;2022-08-01T10:48:10;152609.13;;;25.69;57.77
37486;BME280;23341;50.296;18.960;2022-08-01T10:53:15;152745.94;;;26.23;55.00
37486;BME280;23341;50.296;18.960;2022-08-01T10:58:35;152747.22;;;26.23;54.35
37486;BME280;23341;50.296;18.960;2022-08-01T11:03:57;152446.41;;;25.06;59.25
37486;BME280;23341;50.296;18.960;2022-08-01T11:09:05;152403.47;;;24.89;59.54
37486;BME280;23341;50.296;18.960;2022-08-01T11:14:10;152352.69;;;24.69;61.31
37486;BME280;23341;50.296;18.960;2022-08-01T11:19:15;152486.75;;;25.21;60.20
37486;BME280;23341;50.296;18.960;2022-08-01T11:24:55;152600.06;;;25.66;59.33
37486;BME280;23341;50.296;18.960;2022-08-01T11:30:23;152305.88;;;24.51;63.50
37486;BME280;23341;50.296;18.960;2022-08-01T11:35:28;152227.78;;;24.20;64.01
37486;BME280;23341;50.296;18.960;2022-08-01T11:40:31;152421.63;;;24.96;62.14
37486;BME280;23341;50.296;18.960;2022-08-01T11:45:48;152348.81;;;24.67;63.43
37486;BME280;23341;50.296;18.960;2022-08-01T11:50:52;152447.69;;;25.06;62.48
37486;BME280;23341;50.296;18.960;2022-08-01T11:55:56;152632.66;;;25.79;59.74
37486;BME280;23341;50.296;18.960;2022-08-01T12:01:02;152710.78;;;26.09;58.95
37486;BME280;23341;50.296;18.960;2022-08-01T12:06:08;152554.44;;;25.48;61.67
37486;BME280;23341;50.296;18.960;2022-08-01T12:11:12;152473.75;;;25.16;62.85
37486;BME280;23341;50.296;18.960;2022-08-01T12:16:17;152454.22;;;25.09;63.39
37486;BME280;23341;50.296;18.960;2022-08-01T12:21:24;152385.22;;;24.82;65.38
37486;BME280;23341;50.296;18.960;2022-08-01T12:26:40;152583.09;;;25.59;61.92
37486;BME280;23341;50.296;18.960;2022-08-01T12:31:45;152499.78;;;25.27;63.06
37486;BME280;23341;50.296;18.960;2022-08-01T12:36:48;152570.09;;;25.54;61.85
37486;BME280;23341;50.296;18.960;2022-08-01T12:41:53;152666.50;;;25.92;61.77
37486;BME280;23341;50.296;18.960;2022-08-01T12:46:58;152658.69;;;25.89;61.12
37486;BME280;23341;50.296;18.960;2022-08-01T12:52:04;152830.66;;;26.56;58.87
37486;BME280;23341;50.296;18.960;2022-08-01T12:57:22;153026.16;;;27.33;55.75
37486;BME280;23341;50.296;18.960;2022-08-01T13:02:33;153292.22;;;28.37;52.37
37486;BME280;23341;50.296;18.960;2022-08-01T13:07:38;153630.25;;;29.69;49.49
37486;BME280;23341;50.296;18.960;2022-08-01T13:12:51;154195.94;;;31.90;43.32
37486;BME280;23341;50.296;18.960;2022-08-01T13:17:58;154296.63;;;32.29;42.10
37486;BME280;23341;50.296;18.960;2022-08-01T13:23:12;154520.28;;;33.17;40.60
37486;BME280;23341;50.296;18.960;2022-08-01T13:28:36;153553.19;;;29.39;48.67
37486;BME280;23341;50.296;18.960;2022-08-01T13:33:43;153879.69;;;30.66;46.27
37486;BME280;23341;50.296;18.960;2022-08-01T13:38:55;153816.97;;;30.42;47.82
37486;BME280;23341;50.296;18.960;2022-08-01T13:44:16;154689.06;;;33.82;40.31
37486;BME280;23341;50.296;18.960;2022-08-01T13:49:21;154587.00;;;33.43;40.71
37486;BME280;23341;50.296;18.960;2022-08-01T13:54:24;153807.84;;;30.38;46.38
37486;BME280;23341;50.296;18.960;2022-08-01T13:59:28;154222.09;;;32.00;43.74
37486;BME280;23341;50.296;18.960;2022-08-01T14:04:33;154121.44;;;31.61;43.31
37486;BME280;23341;50.296;18.960;2022-08-01T14:09:36;154073.06;;;31.42;44.05
37486;BME280;23341;50.296;18.960;2022-08-01T14:14:59;154046.97;;;31.32;44.38
37486;BME280;23341;50.296;18.960;2022-08-01T14:20:05;154232.56;;;32.04;42.68
37486;BME280;23341;50.296;18.960;2022-08-01T14:25:09;153882.28;;;30.67;45.55
37486;BME280;23341;50.296;18.960;2022-08-01T14:30:25;153430.50;;;28.91;51.87
37486;BME280;23341;50.296;18.960;2022-08-01T14:35:29;153969.84;;;31.02;45.72
37486;BME280;23341;50.296;18.960;2022-08-01T14:40:53;154114.88;;;31.58;43.31
37486;BME280;23341;50.296;18.960;2022-08-01T14:45:57;153598.91;;;29.57;48.98
37486;BME280;23341;50.296;18.960;2022-08-01T14:51:01;152984.47;;;27.16;56.80
37486;BME280;23341;50.296;18.960;2022-08-01T14:56:06;152666.50;;;25.92;62.13
37486;BME280;23341;50.296;18.960;2022-08-01T15:01:10;152566.22;;;25.53;64.51
37486;BME280;23341;50.296;18.960;2022-08-01T15:06:15;152422.94;;;24.96;67.57
37486;BME280;23341;50.296;18.960;2022-08-01T15:11:18;152393.03;;;24.85;68.83
37486;BME280;23341;50.296;18.960;2022-08-01T15:16:21;152342.28;;;24.65;69.75
37486;BME280;23341;50.296;18.960;2022-08-01T15:21:27;152298.03;;;24.47;72.03
37486;BME280;23341;50.296;18.960;2022-08-01T15:26:43;152318.88;;;24.56;70.84
37486;BME280;23341;50.296;18.960;2022-08-01T15:31:46;152394.34;;;24.85;70.96
37486;BME280;23341;50.296;18.960;2022-08-01T15:36:51;152550.56;;;25.46;68.63
37486;BME280;23341;50.296;18.960;2022-08-01T15:41:57;152600.06;;;25.66;67.62
37486;BME280;23341;50.296;18.960;2022-08-01T15:47:02;152821.53;;;26.53;64.14
37486;BME280;23341;50.296;18.960;2022-08-01T15:52:08;152874.94;;;26.74;64.23
37486;BME280;23341;50.296;18.960;2022-08-01T15:57:22;152808.50;;;26.48;62.32
37486;BME280;23341;50.296;18.960;2022-08-01T16:02:25;152783.69;;;26.38;64.14
37486;BME280;23341;50.296;18.960;2022-08-01T16:07:30;152432.06;;;25.00;69.05
37486;BME280;23341;50.296;18.960;2022-08-01T16:12:34;152368.28;;;24.75;72.94
37486;BME280;23341;50.296;18.960;2022-08-01T16:17:37;152301.94;;;24.49;74.04
37486;BME280;23341;50.296;18.960;2022-08-01T16:22:46;152180.91;;;24.02;76.39
37486;BME280;23341;50.296;18.960;2022-08-01T16:27:50;152244.66;;;24.27;75.99
37486;BME280;23341;50.296;18.960;2022-08-01T16:32:53;152015.72;;;23.37;79.53
37486;BME280;23341;50.296;18.960;2022-08-01T16:38:10;151988.44;;;23.26;80.86
37486;BME280;23341;50.296;18.960;2022-08-01T16:43:15;152013.13;;;23.36;81.02
37486;BME280;23341;50.296;18.960;2022-08-01T16:48:19;152062.50;;;23.55;80.22
37486;BME280;23341;50.296;18.960;2022-08-01T16:53:23;152210.84;;;24.13;76.20
37486;BME280;23341;50.296;18.960;2022-08-01T16:58:27;152169.22;;;23.97;76.40
37486;BME280;23341;50.296;18.960;2022-08-01T17:03:32;152088.59;;;23.65;77.93
37486;BME280;23341;50.296;18.960;2022-08-01T17:08:56;152091.19;;;23.66;77.15
37486;BME280;23341;50.296;18.960;2022-08-01T17:14:00;152027.41;;;23.41;78.84
37486;BME280;23341;50.296;18.960;2022-08-01T17:19:03;151876.59;;;22.82;82.11
37486;BME280;23341;50.296;18.960;2022-08-01T17:24:08;151805.16;;;22.54;83.69
37486;BME280;23341;50.296;18.960;2022-08-01T17:29:17;151810.31;;;22.56;84.32
37486;BME280;23341;50.296;18.960;2022-08-01T17:34:20;151875.28;;;22.82;83.78
37486;BME280;23341;50.296;18.960;2022-08-01T17:39:25;151846.75;;;22.70;83.87
37486;BME280;23341;50.296;18.960;2022-08-01T17:44:40;151846.75;;;22.70;83.91
37486;BME280;23341;50.296;18.960;2022-08-01T17:49:50;151840.22;;;22.68;84.05
37486;BME280;23341;50.296;18.960;2022-08-01T17:54:58;151898.72;;;22.91;84.01
37486;BME280;23341;50.296;18.960;2022-08-01T18:00:03;151863.59;;;22.77;85.67
37486;BME280;23341;50.296;18.960;2022-08-01T18:05:08;151867.53;;;22.79;85.37
37486;BME280;23341;50.296;18.960;2022-08-01T18:10:18;151754.47;;;22.34;88.08
37486;BME280;23341;50.296;18.960;2022-08-01T18:15:21;151731.09;;;22.25;87.78
37486;BME280;23341;50.296;18.960;2022-08-01T18:20:28;151658.28;;;21.96;87.45
37486;BME280;23341;50.296;18.960;2022-08-01T18:25:32;151618.06;;;21.81;88.63
37486;BME280;23341;50.296;18.960;2022-08-01T18:30:36;151620.63;;;21.82;89.89
37486;BME280;23341;50.296;18.960;2022-08-01T18:35:39;151642.72;;;21.90;89.78
37486;BME280;23341;50.296;18.960;2022-08-01T18:40:56;151625.81;;;21.84;90.66
37486;BME280;23341;50.296;18.960;2022-08-01T18:45:59;151589.47;;;21.69;92.26
37486;BME280;23341;50.296;18.960;2022-08-01T18:51:05;151544.03;;;21.52;94.22
37486;BME280;23341;50.296;18.960;2022-08-01T18:56:13;151536.22;;;21.48;94.86
37486;BME280;23341;50.296;18.960;2022-08-01T19:01:17;151521.94;;;21.43;96.02
37486;BME280;23341;50.296;18.960;2022-08-01T19:06:21;151516.72;;;21.41;96.27
37486;BME280;23341;50.296;18.960;2022-08-01T19:11:27;151451.78;;;21.15;98.95
37486;BME280;23341;50.296;18.960;2022-08-01T19:16:30;151424.53;;;21.05;99.89
37486;BME280;23341;50.296;18.960;2022-08-01T19:21:34;151458.28;;;21.18;100.00
37486;BME280;23341;50.296;18.960;2022-08-01T19:26:47;151457.00;;;21.17;99.64
37486;BME280;23341;50.296;18.960;2022-08-01T19:31:52;151381.69;;;20.88;100.00
37486;BME280;23341;50.296;18.960;2022-08-01T19:36:56;151349.25;;;20.75;100.00
37486;BME280;23341;50.296;18.960;2022-08-01T19:42:01;151294.75;;;20.54;100.00
37486;BME280;23341;50.296;18.960;2022-08-01T19:47:05;151303.84;;;20.57;100.00
37486;BME280;23341;50.296;18.960;2022-08-01T19:52:09;151306.44;;;20.58;100.00
37486;BME280;23341;50.296;18.960;2022-08-01T19:57:14;151280.50;;;20.48;100.00
37486;BME280;23341;50.296;18.960;2022-08-01T20:02:18;151297.34;;;20.55;100.00
37486;BME280;23341;50.296;18.960;2022-08-01T20:07:22;151229.84;;;20.28;100.00
37486;BME280;23341;50.296;18.960;2022-08-01T20:12:27;151207.78;;;20.19;100.00
37486;BME280;23341;50.296;18.960;2022-08-01T20:17:30;151153.31;;;19.98;100.00
37486;BME280;23341;50.296;18.960;2022-08-01T20:22:34;151162.41;;;20.01;100.00
37486;BME280;23341;50.296;18.960;2022-08-01T20:27:41;151179.22;;;20.08;100.00
37486;BME280;23341;50.296;18.960;2022-08-01T20:32:47;151133.84;;;19.90;100.00
37486;BME280;23341;50.296;18.960;2022-08-01T20:37:51;151092.34;;;19.74;100.00
37486;BME280;23341;50.296;18.960;2022-08-01T20:43:09;151126.09;;;19.87;100.00
37486;BME280;23341;50.296;18.960;2022-08-01T20:48:15;151104.03;;;19.79;100.00
37486;BME280;23341;50.296;18.960;2022-08-01T20:53:18;151158.53;;;20.00;100.00
37486;BME280;23341;50.296;18.960;2022-08-01T20:58:26;151155.88;;;19.99;100.00
37486;BME280;23341;50.296;18.960;2022-08-01T21:03:38;151132.53;;;19.90;100.00
37486;BME280;23341;50.296;18.960;2022-08-01T21:08:46;151118.28;;;19.84;100.00
37486;BME280;23341;50.296;18.960;2022-08-01T21:13:53;151098.84;;;19.76;100.00
37486;BME280;23341;50.296;18.960;2022-08-01T21:19:05;151107.91;;;19.80;100.00
37486;BME280;23341;50.296;18.960;2022-08-01T21:24:22;151041.75;;;19.54;100.00
37486;BME280;23341;50.296;18.960;2022-08-01T21:29:31;151091.03;;;19.73;100.00
37486;BME280;23341;50.296;18.960;2022-08-01T21:34:36;151105.34;;;19.79;100.00
37486;BME280;23341;50.296;18.960;2022-08-01T21:39:43;151100.13;;;19.77;100.00
37486;BME280;23341;50.296;18.960;2022-08-01T21:44:48;151119.59;;;19.85;100.00
37486;BME280;23341;50.296;18.960;2022-08-01T21:49:51;151118.28;;;19.84;100.00
37486;BME280;23341;50.296;18.960;2022-08-01T21:54:59;151059.91;;;19.61;100.00
37486;BME280;23341;50.296;18.960;2022-08-01T22:00:07;151092.34;;;19.74;100.00
37486;BME280;23341;50.296;18.960;2022-08-01T22:05:28;151059.91;;;19.61;100.00
37486;BME280;23341;50.296;18.960;2022-08-01T22:10:56;151057.28;;;19.60;100.00
37486;BME280;23341;50.296;18.960;2022-08-01T22:16:03;151008.03;;;19.41;100.00
37486;BME280;23341;50.296;18.960;2022-08-01T22:21:08;150969.13;;;19.25;100.00
37486;BME280;23341;50.296;18.960;2022-08-01T22:26:12;150970.41;;;19.26;100.00
37486;BME280;23341;50.296;18.960;2022-08-01T22:31:17;150967.84;;;19.25;100.00
37486;BME280;23341;50.296;18.960;2022-08-01T22:36:20;150940.63;;;19.14;100.00
37486;BME280;23341;50.296;18.960;2022-08-01T22:41:28;150880.97;;;18.91;100.00
37486;BME280;23341;50.296;18.960;2022-08-01T22:46:59;150847.28;;;18.77;100.00
37486;BME280;23341;50.296;18.960;2022-08-01T22:52:06;150823.94;;;18.68;100.00
37486;BME280;23341;50.296;18.960;2022-08-01T22:57:19;150799.31;;;18.59;100.00
37486;BME280;23341;50.296;18.960;2022-08-01T23:02:24;150753.94;;;18.41;100.00
37486;BME280;23341;50.296;18.960;2022-08-01T23:07:32;150746.19;;;18.38;100.00
37486;BME280;23341;50.296;18.960;2022-08-01T23:12:36;150755.22;;;18.41;100.00
37486;BME280;23341;50.296;18.960;2022-08-01T23:17:42;150722.88;;;18.29;100.00
37486;BME280;23341;50.296;18.960;2022-08-01T23:22:46;150695.66;;;18.18;100.00
37486;BME280;23341;50.296;18.960;2022-08-01T23:27:51;150664.56;;;18.06;100.00
37486;BME280;23341;50.296;18.960;2022-08-01T23:33:08;150630.88;;;17.92;100.00
37486;BME280;23341;50.296;18.960;2022-08-01T23:38:16;150593.34;;;17.77;100.00
37486;BME280;23341;50.296;18.960;2022-08-01T23:43:21;150598.50;;;17.80;100.00
37486;BME280;23341;50.296;18.960;2022-08-01T23:48:27;150579.03;;;17.72;100.00
37486;BME280;23341;50.296;18.960;2022-08-01T23:53:30;150585.56;;;17.74;100.00
37486;BME280;23341;50.296;18.960;2022-08-01T23:58:37;150541.50;;;17.57;100.00
